Time;durP1;ratioP1;P1;durP2;ratioP2;P2;SDS_P1;SDS_P2;PMS_P1;PMS_P2;Temp;Humidity;BMP_temperature;BMP_pressure;BME280_temperature;BME280_humidity;BME280_pressure;Samples;Min_cycle;Max_cycle;Signal;HPM_P1;HPM_P2
2023/10/21 00:01:34;;;;;;;2.10;0.80;;;;;;;13.82;100.00;93904.88;5096693;28;20217;-69
2023/10/21 00:04:00;;;;;;;0.80;0.80;;;;;;;13.79;100.00;93904.59;5097376;28;20233;-69
2023/10/21 00:06:27;;;;;;;2.03;0.80;;;;;;;13.88;100.00;93908.38;5097918;28;20940;-70
2023/10/21 00:08:53;;;;;;;1.33;0.90;;;;;;;13.83;100.00;93919.72;5097071;28;20199;-69
2023/10/21 00:11:21;;;;;;;2.07;1.10;;;;;;;14.00;100.00;93918.53;5096818;28;20674;-69
2023/10/21 00:13:47;;;;;;;1.57;0.70;;;;;;;13.82;100.00;93933.19;5098547;28;20219;-69
2023/10/21 00:16:16;;;;;;;1.50;0.90;;;;;;;13.94;100.00;93929.34;5097185;28;20203;-69
2023/10/21 00:18:43;;;;;;;1.30;0.90;;;;;;;13.75;100.00;93925.47;5096597;28;20692;-69
2023/10/21 00:21:09;;;;;;;0.60;0.60;;;;;;;13.73;100.00;93932.84;5097355;27;20294;-69
2023/10/21 00:23:36;;;;;;;0.77;0.60;;;;;;;13.83;100.00;93937.44;5097468;28;20211;-69
2023/10/21 00:26:03;;;;;;;3.20;0.80;;;;;;;13.96;100.00;93942.31;5096848;28;20578;-69
2023/10/21 00:28:30;;;;;;;0.70;0.70;;;;;;;14.02;100.00;93942.91;5097372;28;20195;-69
2023/10/21 00:30:57;;;;;;;0.90;0.60;;;;;;;13.77;100.00;93955.16;5096866;28;20213;-69
2023/10/21 00:33:23;;;;;;;0.77;0.60;;;;;;;13.87;100.00;93962.38;5096653;28;20237;-69
2023/10/21 00:35:50;;;;;;;0.93;0.80;;;;;;;13.81;100.00;93976.59;5096699;28;20703;-69
2023/10/21 00:38:16;;;;;;;1.90;1.13;;;;;;;13.90;100.00;93983.84;5097121;27;20195;-70
2023/10/21 00:40:50;;;;;;;0.77;0.70;;;;;;;13.90;100.00;93999.75;5095983;28;20591;-69
2023/10/21 00:46:15;;;;;;;0.90;0.90;;;;;;;13.88;100.00;93996.53;5094036;27;20629;-69
2023/10/21 00:48:42;;;;;;;1.57;0.90;;;;;;;13.58;100.00;94009.47;5093366;28;20207;-69
2023/10/21 00:51:10;;;;;;;0.80;0.80;;;;;;;13.69;100.00;94010.38;5093108;28;20199;-69
2023/10/21 00:53:37;;;;;;;1.10;0.80;;;;;;;13.64;100.00;94007.66;5094418;28;20272;-69
2023/10/21 00:56:03;;;;;;;0.63;0.60;;;;;;;13.57;100.00;94007.84;5093582;28;20206;-70
2023/10/21 00:58:31;;;;;;;0.70;0.53;;;;;;;13.65;100.00;94015.34;5093569;28;20199;-70
2023/10/21 01:00:58;;;;;;;1.03;0.70;;;;;;;13.58;100.00;94025.34;5093279;28;20203;-69
2023/10/21 01:03:27;;;;;;;0.60;0.60;;;;;;;13.73;100.00;94017.53;5093626;28;21052;-69
2023/10/21 01:05:53;;;;;;;0.83;0.83;;;;;;;13.57;100.00;94017.66;5093268;28;21231;-69
2023/10/21 01:08:20;;;;;;;1.10;0.70;;;;;;;13.50;100.00;94017.84;5093381;28;20203;-69
2023/10/21 01:10:46;;;;;;;1.60;0.93;;;;;;;13.75;100.00;94025.25;5093031;28;20210;-70
2023/10/21 01:13:13;;;;;;;1.43;0.70;;;;;;;13.74;100.00;94021.78;5093316;28;20223;-69
2023/10/21 01:15:40;;;;;;;0.87;0.70;;;;;;;13.71;100.00;94024.94;5093880;28;20200;-69
2023/10/21 01:18:07;;;;;;;0.77;0.70;;;;;;;13.90;100.00;94023.56;5093152;28;20199;-69
2023/10/21 01:20:39;;;;;;;0.53;0.50;;;;;;;14.02;100.00;94032.13;5092098;28;20195;-70
2023/10/21 01:23:06;;;;;;;0.77;0.70;;;;;;;13.88;100.00;94028.28;5093487;28;20203;-69
2023/10/21 01:25:34;;;;;;;0.80;0.70;;;;;;;14.06;100.00;94027.94;5093651;28;20247;-69
2023/10/21 01:28:01;;;;;;;0.70;0.70;;;;;;;13.91;100.00;94041.03;5092768;28;20206;-70
2023/10/21 01:30:27;;;;;;;0.60;0.60;;;;;;;13.79;100.00;94042.25;5092553;28;20252;-69
2023/10/21 01:32:54;;;;;;;0.57;0.57;;;;;;;13.73;100.00;94043.22;5093444;28;20282;-70
2023/10/21 01:35:21;;;;;;;0.50;0.50;;;;;;;13.74;100.00;94040.31;5093046;28;20199;-69
2023/10/21 01:37:48;;;;;;;0.40;0.40;;;;;;;13.79;100.00;94043.03;5092928;28;20200;-70
2023/10/21 01:40:15;;;;;;;0.77;0.60;;;;;;;13.60;100.00;94048.91;5092414;28;20339;-70
2023/10/21 01:42:43;;;;;;;0.70;0.50;;;;;;;13.88;100.00;94056.63;5092491;28;20609;-70
2023/10/21 01:45:10;;;;;;;2.90;0.57;;;;;;;13.70;100.00;94055.09;5092667;28;20227;-69
2023/10/21 01:47:37;;;;;;;0.40;0.40;;;;;;;13.79;100.00;94058.13;5092596;28;20191;-70
2023/10/21 01:50:07;;;;;;;0.70;0.57;;;;;;;13.79;100.00;94053.63;5092054;28;20206;-70
2023/10/21 01:52:34;;;;;;;0.40;0.40;;;;;;;13.77;100.00;94061.03;5092192;28;20199;-69
2023/10/21 01:55:03;;;;;;;0.60;0.50;;;;;;;13.83;100.00;94067.16;5093069;28;20219;-70
2023/10/21 01:57:30;;;;;;;0.50;0.50;;;;;;;13.77;100.00;94068.97;5079229;28;20291;-69
2023/10/21 01:59:58;;;;;;;0.60;0.60;;;;;;;13.76;100.00;94074.47;5078350;28;20200;-69
2023/10/21 02:02:25;;;;;;;0.50;0.50;;;;;;;13.67;100.00;94086.53;5078842;28;20206;-69
2023/10/21 02:04:52;;;;;;;0.63;0.53;;;;;;;13.81;100.00;94087.78;5078491;28;20228;-69
2023/10/21 02:07:19;;;;;;;0.53;0.50;;;;;;;13.78;100.00;94093.56;5078204;28;20200;-69
2023/10/21 02:09:45;;;;;;;0.63;0.50;;;;;;;13.81;100.00;94099.19;5078644;28;20296;-69
2023/10/21 02:12:12;;;;;;;0.40;0.40;;;;;;;13.74;100.00;94106.50;5078754;28;20687;-69
2023/10/21 02:14:38;;;;;;;0.40;0.40;;;;;;;13.81;100.00;94104.47;5078279;28;20220;-69
2023/10/21 02:17:06;;;;;;;1.17;0.60;;;;;;;13.95;100.00;94105.69;5078535;28;20210;-69
2023/10/21 02:19:33;;;;;;;2.10;0.63;;;;;;;13.77;100.00;94108.66;5078003;28;20200;-69
2023/10/21 02:21:59;;;;;;;0.40;0.40;;;;;;;13.63;100.00;94112.72;5078551;28;20208;-69
2023/10/21 02:24:26;;;;;;;0.43;0.43;;;;;;;13.66;100.00;94112.22;5078190;28;20220;-70
2023/10/21 02:26:53;;;;;;;2.20;0.50;;;;;;;13.60;100.00;94117.69;5079256;28;20199;-69
2023/10/21 02:29:19;;;;;;;0.50;0.40;;;;;;;13.66;100.00;94128.09;5077914;28;20670;-69
2023/10/21 02:31:46;;;;;;;0.40;0.40;;;;;;;13.63;100.00;94133.91;5078124;28;20576;-69
2023/10/21 02:34:14;;;;;;;0.40;0.40;;;;;;;13.81;100.00;94130.94;5078469;28;20231;-70
2023/10/21 02:36:40;;;;;;;0.47;0.47;;;;;;;13.68;100.00;94135.78;5079453;28;20548;-70
2023/10/21 02:39:07;;;;;;;0.70;0.63;;;;;;;13.65;100.00;94139.72;5077912;28;20204;-69
2023/10/21 02:41:34;;;;;;;0.70;0.50;;;;;;;13.67;100.00;94142.94;5077593;28;20210;-69
2023/10/21 02:44:01;;;;;;;0.50;0.40;;;;;;;13.63;100.00;94151.59;5078654;28;20235;-69
2023/10/21 02:46:27;;;;;;;0.63;0.40;;;;;;;13.71;100.00;94145.88;5077787;28;20788;-70
2023/10/21 02:48:54;;;;;;;0.40;0.40;;;;;;;13.65;100.00;94149.53;5078045;28;20196;-70
2023/10/21 02:51:22;;;;;;;0.47;0.47;;;;;;;13.83;100.00;94157.94;5077646;28;20204;-70
2023/10/21 02:53:48;;;;;;;0.50;0.50;;;;;;;13.48;100.00;94157.50;5078256;28;20215;-70
2023/10/21 02:56:15;;;;;;;0.50;0.50;;;;;;;13.63;100.00;94160.34;5076490;28;20799;-70
2023/10/21 02:58:41;;;;;;;0.43;0.40;;;;;;;13.62;100.00;94160.56;5077015;28;20200;-70
2023/10/21 03:01:14;;;;;;;0.53;0.53;;;;;;;13.70;100.00;94160.19;5077169;28;21090;-69
2023/10/21 03:03:41;;;;;;;0.40;0.40;;;;;;;13.57;100.00;94158.69;5077756;28;20760;-70
2023/10/21 03:06:08;;;;;;;0.33;0.33;;;;;;;13.41;100.00;94167.44;5077795;28;20251;-69
2023/10/21 03:08:36;;;;;;;3.00;0.80;;;;;;;13.66;100.00;94159.84;5076409;28;20204;-69
2023/10/21 03:11:03;;;;;;;0.40;0.40;;;;;;;13.51;100.00;94162.28;5076466;28;20688;-69
2023/10/21 03:13:30;;;;;;;0.83;0.50;;;;;;;13.49;100.00;94169.69;5077786;28;20316;-70
2023/10/21 03:15:57;;;;;;;0.97;0.60;;;;;;;13.57;100.00;94163.97;5077513;28;20693;-69
2023/10/21 03:18:24;;;;;;;0.57;0.40;;;;;;;13.61;100.00;94177.53;5077336;28;20206;-69
2023/10/21 03:20:50;;;;;;;1.03;0.60;;;;;;;13.63;100.00;94180.72;5076801;28;20206;-70
2023/10/21 03:23:17;;;;;;;0.50;0.50;;;;;;;13.61;100.00;94182.81;5077572;28;20223;-69
2023/10/21 03:25:54;;;;;;;1.03;0.53;;;;;;;13.72;100.00;94185.34;5077528;28;20311;-70
2023/10/21 03:28:20;;;;;;;0.40;0.40;;;;;;;13.57;100.00;94187.00;5077099;28;20207;-70
2023/10/21 03:30:47;;;;;;;0.40;0.40;;;;;;;13.60;100.00;94197.88;5077071;28;20200;-69
2023/10/21 03:33:14;;;;;;;0.40;0.40;;;;;;;13.55;100.00;94200.44;5077171;28;20239;-70
2023/10/21 03:35:40;;;;;;;0.50;0.50;;;;;;;13.47;100.00;94200.09;5077377;28;20224;-70
2023/10/21 03:38:07;;;;;;;0.73;0.50;;;;;;;13.56;100.00;94198.63;5077075;28;20210;-69
2023/10/21 03:40:33;;;;;;;0.43;0.43;;;;;;;13.57;100.00;94198.38;5076297;28;20204;-69
2023/10/21 03:43:01;;;;;;;0.50;0.50;;;;;;;13.69;100.00;94204.34;5076551;28;20674;-69
2023/10/21 03:45:28;;;;;;;0.37;0.37;;;;;;;13.53;100.00;94210.50;5077677;28;20220;-70
2023/10/21 03:47:55;;;;;;;2.00;0.90;;;;;;;13.64;100.00;94214.88;5076850;28;20738;-69
2023/10/21 03:50:21;;;;;;;0.83;0.50;;;;;;;13.61;100.00;94209.28;5075980;28;20210;-70
2023/10/21 03:52:48;;;;;;;0.50;0.50;;;;;;;13.61;100.00;94210.06;5076856;28;20204;-69
2023/10/21 03:55:14;;;;;;;0.50;0.50;;;;;;;13.67;100.00;94214.41;5077334;28;20232;-69
2023/10/21 03:57:41;;;;;;;0.50;0.50;;;;;;;13.62;100.00;94227.56;5076310;28;20665;-70
2023/10/21 04:00:12;;;;;;;0.60;0.60;;;;;;;13.80;100.00;94221.19;5076390;28;21179;-69
2023/10/21 04:02:38;;;;;;;0.40;0.40;;;;;;;13.66;100.00;94236.59;5076436;28;20203;-70
2023/10/21 04:05:08;;;;;;;0.53;0.53;;;;;;;13.65;100.00;94240.28;5076624;28;20228;-69
2023/10/21 04:07:34;;;;;;;2.60;0.50;;;;;;;13.64;100.00;94246.63;5076607;28;20208;-70
2023/10/21 04:10:01;;;;;;;0.57;0.57;;;;;;;13.56;100.00;94249.69;5076441;28;20206;-70
2023/10/21 04:12:29;;;;;;;0.57;0.57;;;;;;;13.65;100.00;94250.88;5076393;28;20224;-70
2023/10/21 04:14:56;;;;;;;1.70;0.50;;;;;;;13.58;100.00;94252.09;5077006;28;20223;-70
2023/10/21 04:17:24;;;;;;;0.57;0.57;;;;;;;13.65;100.00;94263.31;5076321;28;20204;-70
2023/10/21 04:19:51;;;;;;;1.03;0.60;;;;;;;13.95;100.00;94267.19;5075419;28;20196;-70
2023/10/21 04:22:18;;;;;;;0.37;0.37;;;;;;;13.59;100.00;94265.09;5076462;28;20200;-70
2023/10/21 04:24:44;;;;;;;0.87;0.77;;;;;;;13.65;100.00;94273.91;5076358;28;21326;-70
2023/10/21 04:27:11;;;;;;;0.50;0.50;;;;;;;13.63;100.00;94274.16;5075864;28;20723;-70
2023/10/21 04:29:38;;;;;;;0.70;0.67;;;;;;;13.65;100.00;94277.34;5076264;28;20196;-70
2023/10/21 04:32:05;;;;;;;0.87;0.50;;;;;;;13.63;100.00;94287.38;5076140;28;20968;-70
2023/10/21 04:34:33;;;;;;;2.07;1.00;;;;;;;13.75;100.00;94288.09;5076436;28;20246;-70
2023/10/21 04:36:59;;;;;;;1.30;0.90;;;;;;;13.61;100.00;94300.03;5076074;28;20196;-69
2023/10/21 04:39:28;;;;;;;2.30;1.03;;;;;;;13.80;100.00;94297.94;5075918;28;20290;-69
2023/10/21 04:41:55;;;;;;;3.30;1.10;;;;;;;13.76;100.00;94302.94;5076141;28;20337;-70
2023/10/21 04:44:21;;;;;;;2.30;1.00;;;;;;;13.62;100.00;94304.31;5075779;28;20235;-70
2023/10/21 04:46:48;;;;;;;3.07;0.70;;;;;;;13.54;100.00;94307.34;5076250;28;20561;-70
2023/10/21 04:49:15;;;;;;;0.97;0.90;;;;;;;13.41;100.00;94315.59;5076158;28;20211;-70
2023/10/21 04:51:43;;;;;;;0.80;0.70;;;;;;;13.50;100.00;94319.47;5075926;28;20199;-69
2023/10/21 04:54:09;;;;;;;0.80;0.77;;;;;;;13.39;100.00;94324.84;5076225;28;20219;-70
2023/10/21 04:56:36;;;;;;;1.63;0.80;;;;;;;13.34;100.00;94323.94;5077110;28;20192;-70
2023/10/21 04:59:02;;;;;;;2.93;0.60;;;;;;;13.37;100.00;94326.13;5075658;28;20204;-70
2023/10/21 05:01:29;;;;;;;0.70;0.60;;;;;;;13.32;100.00;94326.03;5075471;28;20196;-69
2023/10/21 05:03:55;;;;;;;0.83;0.70;;;;;;;13.25;100.00;94330.66;5076512;28;20265;-69
2023/10/21 05:06:22;;;;;;;4.37;1.23;;;;;;;13.28;100.00;94327.56;5075292;28;20219;-70
2023/10/21 05:08:50;;;;;;;2.27;1.10;;;;;;;13.34;100.00;94339.81;5075521;28;20576;-70
2023/10/21 05:11:16;;;;;;;3.57;1.80;;;;;;;13.22;100.00;94345.16;5075570;28;20597;-69
2023/10/21 05:13:43;;;;;;;3.43;1.70;;;;;;;13.15;100.00;94351.63;5075631;28;20223;-70
2023/10/21 05:16:09;;;;;;;3.10;1.57;;;;;;;13.13;100.00;94365.09;5076122;28;20200;-69
2023/10/21 05:18:36;;;;;;;3.40;1.50;;;;;;;13.06;100.00;94361.81;5075850;28;20250;-70
2023/10/21 05:21:06;;;;;;;2.10;1.10;;;;;;;12.99;100.00;94377.00;5075279;28;20207;-70
2023/10/21 05:23:32;;;;;;;1.60;1.00;;;;;;;13.05;100.00;94375.25;5075107;28;20219;-70
2023/10/21 05:26:01;;;;;;;1.47;0.80;;;;;;;13.25;100.00;94383.53;5076168;28;20245;-70
2023/10/21 05:28:28;;;;;;;1.70;1.10;;;;;;;13.03;100.00;94377.34;5075265;28;20214;-69
2023/10/21 05:30:54;;;;;;;14.73;4.33;;;;;;;13.04;100.00;94381.59;5075463;28;20549;-70
2023/10/21 05:33:21;;;;;;;15.00;3.67;;;;;;;13.03;100.00;94390.56;5079105;28;20223;-70
2023/10/21 05:35:47;;;;;;;20.90;5.13;;;;;;;12.92;100.00;94389.56;5079679;28;20192;-70
2023/10/21 05:38:14;;;;;;;18.50;5.13;;;;;;;12.97;100.00;94400.22;5079033;28;20539;-70
2023/10/21 05:40:43;;;;;;;16.23;4.53;;;;;;;13.06;100.00;94400.66;5078472;28;20200;-70
2023/10/21 05:43:11;;;;;;;13.93;3.80;;;;;;;13.17;100.00;94397.16;5079276;28;20629;-70
2023/10/21 05:45:37;;;;;;;14.27;4.90;;;;;;;12.98;100.00;94416.88;5078592;28;20231;-69
2023/10/21 05:48:05;;;;;;;27.00;9.60;;;;;;;13.04;100.00;94403.53;5079233;28;20306;-70
2023/10/21 05:50:32;;;;;;;15.87;5.93;;;;;;;13.33;100.00;94410.44;5078859;28;20584;-70
2023/10/21 05:52:58;;;;;;;6.23;3.13;;;;;;;13.20;100.00;94423.94;5078321;28;21150;-69
2023/10/21 05:55:25;;;;;;;6.90;3.17;;;;;;;13.26;100.00;94428.28;5078966;28;20204;-70
2023/10/21 05:57:51;;;;;;;10.27;4.10;;;;;;;13.32;100.00;94437.13;5079362;28;20215;-70
2023/10/21 06:00:19;;;;;;;7.27;2.97;;;;;;;13.47;100.00;94444.28;5078589;28;20204;-70
2023/10/21 06:02:46;;;;;;;9.80;3.60;;;;;;;13.28;100.00;94449.22;5078881;28;20206;-70
2023/10/21 06:05:14;;;;;;;4.93;3.00;;;;;;;13.38;100.00;94453.63;5078466;28;20219;-69
2023/10/21 06:07:40;;;;;;;7.73;3.20;;;;;;;13.41;100.00;94453.16;5078744;28;20233;-70
2023/10/21 06:10:08;;;;;;;8.63;3.37;;;;;;;13.58;100.00;94469.91;5078580;28;20318;-69
2023/10/21 06:12:35;;;;;;;5.37;3.10;;;;;;;13.55;100.00;94473.00;5078633;28;20196;-70
2023/10/21 06:15:02;;;;;;;4.03;2.57;;;;;;;13.56;100.00;94477.25;5078835;28;20230;-70
2023/10/21 06:17:30;;;;;;;4.27;2.33;;;;;;;13.87;100.00;94489.97;5078286;28;20254;-70
2023/10/21 06:19:58;;;;;;;4.37;2.63;;;;;;;13.86;100.00;94493.69;5078125;28;20200;-70
2023/10/21 06:22:25;;;;;;;5.47;2.57;;;;;;;13.98;100.00;94494.41;5078600;28;20200;-70
2023/10/21 06:24:52;;;;;;;5.57;2.63;;;;;;;14.08;100.00;94507.88;5078141;28;20338;-70
2023/10/21 06:27:18;;;;;;;4.37;2.40;;;;;;;14.10;100.00;94509.25;5077563;28;20223;-70
2023/10/21 06:29:45;;;;;;;5.03;2.40;;;;;;;14.16;100.00;94520.72;5078703;28;20199;-70
2023/10/21 06:32:11;;;;;;;3.97;1.87;;;;;;;14.17;100.00;94511.72;5078310;28;20204;-70
2023/10/21 06:34:39;;;;;;;2.97;1.40;;;;;;;14.31;100.00;94523.63;5077782;28;20231;-70
2023/10/21 06:37:06;;;;;;;3.13;1.67;;;;;;;14.23;100.00;94526.66;5078192;28;20204;-70
2023/10/21 06:39:32;;;;;;;2.27;1.60;;;;;;;14.22;100.00;94538.31;5078994;28;20208;-70
2023/10/21 06:41:59;;;;;;;3.93;1.67;;;;;;;14.30;100.00;94543.19;5077925;28;20199;-70
2023/10/21 06:44:25;;;;;;;6.07;1.80;;;;;;;14.33;100.00;94545.38;5077374;28;20314;-70
2023/10/21 06:46:52;;;;;;;1.50;0.90;;;;;;;14.45;100.00;94552.19;5077917;28;20226;-70
2023/10/21 06:49:19;;;;;;;2.37;0.80;;;;;;;14.50;100.00;94554.94;5077123;28;20563;-70
2023/10/21 06:51:49;;;;;;;3.47;0.77;;;;;;;14.69;100.00;94562.38;5077020;28;20493;-70
2023/10/21 06:54:17;;;;;;;1.77;1.17;;;;;;;14.58;100.00;94565.13;5077958;28;20216;-70
2023/10/21 06:56:43;;;;;;;2.80;1.37;;;;;;;14.64;100.00;94557.00;5078339;28;20299;-70
2023/10/21 06:59:10;;;;;;;2.87;1.50;;;;;;;14.88;100.00;94573.53;5077188;28;20203;-70
2023/10/21 07:01:36;;;;;;;3.93;1.40;;;;;;;15.02;100.00;94569.50;5077029;28;20468;-70
2023/10/21 07:04:03;;;;;;;6.67;2.30;;;;;;;15.06;100.00;94576.75;5077093;28;20224;-70
2023/10/21 07:06:30;;;;;;;7.77;2.30;;;;;;;15.12;100.00;94581.06;5076640;28;20278;-70
2023/10/21 07:08:58;;;;;;;4.60;1.90;;;;;;;15.02;100.00;94588.88;5077439;28;20200;-70
2023/10/21 07:11:25;;;;;;;5.50;1.70;;;;;;;15.09;100.00;94594.03;5077276;28;20334;-70
2023/10/21 07:13:51;;;;;;;9.27;2.50;;;;;;;15.30;100.00;94599.41;5077559;28;20216;-70
2023/10/21 07:16:18;;;;;;;8.67;3.07;;;;;;;15.15;100.00;94606.28;5077989;28;20199;-70
2023/10/21 07:18:44;;;;;;;2.90;2.07;;;;;;;15.21;100.00;94603.53;5077696;28;20204;-70
2023/10/21 07:21:11;;;;;;;4.23;1.53;;;;;;;15.22;100.00;94605.09;5077061;28;20212;-70
2023/10/21 07:23:37;;;;;;;4.30;1.23;;;;;;;15.19;100.00;94604.78;5077044;28;20227;-70
2023/10/21 07:26:06;;;;;;;6.77;2.00;;;;;;;15.42;100.00;94603.53;5077476;28;20208;-70
2023/10/21 07:28:34;;;;;;;5.93;2.93;;;;;;;15.38;100.00;94612.25;5076791;28;20208;-70
2023/10/21 07:31:00;;;;;;;2.97;1.30;;;;;;;15.39;100.00;94609.34;5077001;28;20252;-70
2023/10/21 07:33:27;;;;;;;10.05;1.42;;;;;;;15.46;100.00;94614.47;5076681;28;20219;-70
2023/10/21 07:35:54;;;;;;;1.95;1.30;;;;;;;15.50;100.00;94620.88;5077313;28;20196;-70
2023/10/21 07:38:21;;;;;;;2.47;1.20;;;;;;;15.66;100.00;94620.06;5076813;28;20737;-70
2023/10/21 07:40:48;;;;;;;0.88;0.80;;;;;;;15.82;100.00;94616.53;5077555;28;20227;-71
2023/10/21 07:43:17;;;;;;;0.77;0.57;;;;;;;15.89;100.00;94617.94;5076530;28;20425;-70
2023/10/21 07:45:44;;;;;;;2.40;1.10;;;;;;;15.98;100.00;94619.91;5076218;28;20220;-71
2023/10/21 07:48:11;;;;;;;4.95;1.52;;;;;;;15.80;100.00;94623.94;5077094;28;20224;-70
2023/10/21 07:50:38;;;;;;;2.55;1.25;;;;;;;16.06;100.00;94623.97;5077048;28;20206;-70
2023/10/21 07:53:05;;;;;;;1.05;0.60;;;;;;;16.25;100.00;94634.03;5075415;28;20208;-71
2023/10/21 07:55:31;;;;;;;4.13;1.10;;;;;;;16.32;100.00;94628.53;5075827;28;20518;-70
2023/10/21 07:57:58;;;;;;;0.88;0.52;;;;;;;16.20;100.00;94639.28;5077406;28;20589;-70
2023/10/21 08:00:26;;;;;;;0.90;0.80;;;;;;;16.25;100.00;94651.81;5075923;28;20268;-71
2023/10/21 08:02:52;;;;;;;2.38;1.10;;;;;;;16.23;100.00;94653.91;5076737;28;20833;-70
2023/10/21 08:05:21;;;;;;;3.30;0.60;;;;;;;16.35;100.00;94663.41;5077124;28;20206;-71
2023/10/21 08:07:47;;;;;;;0.70;0.50;;;;;;;16.13;100.00;94665.25;5076630;28;20224;-70
2023/10/21 08:10:14;;;;;;;1.35;0.77;;;;;;;16.43;100.00;94670.91;5076289;28;20204;-70
2023/10/21 08:12:40;;;;;;;1.50;0.65;;;;;;;16.59;100.00;94665.50;5076278;28;20680;-70
2023/10/21 08:15:08;;;;;;;3.22;1.20;;;;;;;16.88;100.00;94668.69;5076479;28;20219;-70
2023/10/21 08:17:36;;;;;;;1.88;1.17;;;;;;;17.39;100.00;94661.69;5076199;28;20603;-71
2023/10/21 08:20:04;;;;;;;3.90;1.17;;;;;;;17.36;100.00;94667.56;5076007;28;20692;-70
2023/10/21 08:22:30;;;;;;;2.35;1.08;;;;;;;17.18;100.00;94667.09;5076209;28;20204;-70
2023/10/21 08:24:57;;;;;;;1.50;1.15;;;;;;;16.89;100.00;94670.31;5076310;28;20244;-71
2023/10/21 08:27:24;;;;;;;1.05;0.80;;;;;;;16.88;100.00;94672.19;5075240;28;20224;-70
2023/10/21 08:29:50;;;;;;;0.70;0.60;;;;;;;16.72;100.00;94685.59;5076455;28;20200;-71
2023/10/21 08:32:17;;;;;;;1.08;0.70;;;;;;;17.03;100.00;94687.47;5076070;28;20204;-71
2023/10/21 08:34:45;;;;;;;0.82;0.60;;;;;;;17.12;100.00;94702.75;5076462;28;20220;-70
2023/10/21 08:37:11;;;;;;;1.17;0.65;;;;;;;16.91;100.00;94705.47;5076348;28;20215;-70
2023/10/21 08:39:38;;;;;;;0.80;0.80;;;;;;;17.08;100.00;94708.81;5075498;28;20199;-71
2023/10/21 08:42:06;;;;;;;1.25;0.90;;;;;;;17.19;100.00;94716.63;5076141;28;20200;-70
2023/10/21 08:44:33;;;;;;;0.55;0.50;;;;;;;16.61;100.00;94723.75;5076408;28;20235;-71
2023/10/21 08:47:04;;;;;;;0.40;0.40;;;;;;;16.81;100.00;94718.66;5075898;28;20710;-71
2023/10/21 08:49:33;;;;;;;1.67;0.70;;;;;;;16.98;100.00;94727.34;5075973;28;20767;-71
2023/10/21 08:52:02;;;;;;;1.20;0.60;;;;;;;16.90;100.00;94735.78;5075550;28;20672;-71
2023/10/21 08:54:32;;;;;;;0.73;0.73;;;;;;;16.91;100.00;94737.41;5075412;28;20628;-71
2023/10/21 08:56:59;;;;;;;0.52;0.52;;;;;;;16.59;100.00;94736.53;5075317;28;20226;-69
2023/10/21 08:59:26;;;;;;;1.75;0.63;;;;;;;17.05;100.00;94725.28;5075537;28;20207;-71
2023/10/21 09:01:52;;;;;;;0.30;0.30;;;;;;;17.31;100.00;94738.56;5075749;28;21024;-70
2023/10/21 09:04:20;;;;;;;0.38;0.38;;;;;;;17.11;100.00;94738.38;5075681;28;20224;-70
2023/10/21 09:06:57;;;;;;;0.47;0.45;;;;;;;17.57;100.00;94749.19;5077647;28;20223;-71
2023/10/21 09:09:27;;;;;;;0.60;0.30;;;;;;;17.28;100.00;94745.22;5079044;28;20302;-70
2023/10/21 09:12:04;;;;;;;0.20;0.20;;;;;;;17.30;100.00;94748.44;5079563;28;20203;-70
2023/10/21 09:14:31;;;;;;;1.58;0.40;;;;;;;16.82;100.00;94760.19;5079859;28;20223;-71
2023/10/21 09:16:57;;;;;;;0.30;0.30;;;;;;;16.88;100.00;94762.66;5080049;28;20679;-70
2023/10/21 09:19:26;;;;;;;0.20;0.20;;;;;;;16.92;100.00;94755.75;5079099;28;20196;-70
2023/10/21 09:21:53;;;;;;;1.58;0.70;;;;;;;17.00;100.00;94768.59;5078242;28;20203;-71
2023/10/21 09:24:22;;;;;;;0.63;0.40;;;;;;;17.15;100.00;94772.22;5080147;28;20223;-71
2023/10/21 09:26:51;;;;;;;0.35;0.35;;;;;;;17.23;100.00;94774.44;5078840;28;20591;-70
2023/10/21 09:29:20;;;;;;;0.40;0.40;;;;;;;16.99;100.00;94776.84;5078404;28;20203;-70
2023/10/21 09:31:49;;;;;;;0.45;0.40;;;;;;;17.28;100.00;94774.50;5079314;28;20649;-71
2023/10/21 09:34:29;;;;;;;0.88;0.65;;;;;;;17.18;100.00;94771.72;5078891;28;20227;-71
2023/10/21 09:36:57;;;;;;;0.30;0.30;;;;;;;17.27;100.00;94777.41;5078529;28;20282;-70
2023/10/21 09:39:25;;;;;;;0.35;0.35;;;;;;;17.18;100.00;94781.56;5078201;28;20290;-71
2023/10/21 09:41:53;;;;;;;0.30;0.30;;;;;;;17.12;100.00;94783.38;5078770;28;20200;-70
2023/10/21 09:44:20;;;;;;;0.70;0.30;;;;;;;17.28;100.00;94785.16;5078719;28;20231;-70
2023/10/21 09:46:49;;;;;;;0.93;0.43;;;;;;;17.14;100.00;94791.09;5078368;28;20207;-70
2023/10/21 09:49:16;;;;;;;0.30;0.30;;;;;;;17.11;100.00;94792.41;5079117;28;20236;-70
2023/10/21 09:51:51;;;;;;;1.13;0.55;;;;;;;17.18;100.00;94795.69;5078307;28;20211;-70
2023/10/21 09:54:31;;;;;;;0.50;0.50;;;;;;;17.33;100.00;94790.53;5078548;28;20223;-71
2023/10/21 09:57:01;;;;;;;1.20;0.50;;;;;;;17.48;100.00;94793.31;5079639;28;20208;-70
2023/10/21 09:59:29;;;;;;;0.60;0.60;;;;;;;17.20;100.00;94798.88;5078265;28;20204;-70
2023/10/21 10:01:57;;;;;;;0.65;0.50;;;;;;;17.42;100.00;94793.53;5078734;28;20249;-70
2023/10/21 10:04:26;;;;;;;2.65;0.50;;;;;;;17.33;100.00;94795.84;5078700;28;20238;-70
2023/10/21 10:06:58;;;;;;;0.30;0.30;;;;;;;17.50;100.00;94791.22;5079489;28;21267;-71
2023/10/21 10:09:27;;;;;;;0.30;0.30;;;;;;;17.28;100.00;94793.13;5078697;28;20210;-70
2023/10/21 10:11:58;;;;;;;0.40;0.40;;;;;;;17.36;100.00;94783.88;5078408;28;20200;-70
2023/10/21 10:14:28;;;;;;;0.40;0.40;;;;;;;17.94;100.00;94789.94;5078377;28;20315;-70
2023/10/21 10:16:55;;;;;;;0.50;0.40;;;;;;;17.41;100.00;94798.06;5078117;28;20204;-70
2023/10/21 10:19:37;;;;;;;2.35;0.52;;;;;;;17.67;100.00;94793.72;5078627;28;20582;-70
2023/10/21 10:22:18;;;;;;;0.60;0.50;;;;;;;17.48;100.00;94795.97;5076058;28;20699;-71
2023/10/21 10:24:50;;;;;;;0.98;0.65;;;;;;;17.59;100.00;94792.38;5078298;28;20238;-70
2023/10/21 10:27:18;;;;;;;3.03;0.70;;;;;;;17.17;100.00;94796.75;5079189;28;20231;-70
2023/10/21 10:29:50;;;;;;;0.50;0.40;;;;;;;17.51;100.00;94787.47;5078080;28;20330;-71
2023/10/21 10:32:16;;;;;;;0.40;0.40;;;;;;;17.23;100.00;94785.09;5078566;28;20665;-70
2023/10/21 10:34:52;;;;;;;0.57;0.30;;;;;;;17.49;100.00;94784.28;5078072;28;20232;-71
2023/10/21 10:37:30;;;;;;;0.30;0.30;;;;;;;17.71;100.00;94779.66;5078573;28;20203;-70
2023/10/21 10:39:57;;;;;;;1.20;0.85;;;;;;;17.40;100.00;94783.13;5077769;28;21091;-70
2023/10/21 10:42:27;;;;;;;0.60;0.47;;;;;;;17.61;100.00;94792.91;5078650;28;20208;-70
2023/10/21 10:44:56;;;;;;;0.80;0.60;;;;;;;17.65;100.00;94801.97;5077831;28;20231;-70
2023/10/21 10:47:22;;;;;;;1.02;0.40;;;;;;;17.60;100.00;94795.81;5078013;28;20233;-70
2023/10/21 10:49:56;;;;;;;1.00;0.47;;;;;;;17.70;100.00;94802.03;5077692;28;20204;-70
2023/10/21 10:52:31;;;;;;;0.65;0.50;;;;;;;17.88;100.00;94802.44;5078121;28;20196;-70
2023/10/21 10:54:58;;;;;;;0.40;0.40;;;;;;;17.56;100.00;94803.50;5077678;28;20234;-70
2023/10/21 10:57:25;;;;;;;1.00;0.80;;;;;;;17.37;100.00;94807.59;5077981;28;20852;-70
2023/10/21 10:59:52;;;;;;;0.32;0.32;;;;;;;17.61;100.00;94797.44;5077587;28;20200;-70
2023/10/21 11:02:20;;;;;;;0.60;0.60;;;;;;;17.77;100.00;94797.31;5077722;28;20204;-70
2023/10/21 11:04:49;;;;;;;0.93;0.47;;;;;;;17.86;100.00;94801.09;5077891;28;20231;-70
2023/10/21 11:07:16;;;;;;;0.55;0.40;;;;;;;17.47;100.00;94806.91;5077788;28;20231;-71
2023/10/21 11:09:42;;;;;;;0.47;0.47;;;;;;;17.51;100.00;94798.13;5076515;28;20200;-71
2023/10/21 11:12:09;;;;;;;0.60;0.50;;;;;;;17.74;100.00;94808.44;5077698;28;20226;-70
2023/10/21 11:14:36;;;;;;;0.40;0.40;;;;;;;17.83;100.00;94806.91;5078354;28;20228;-71
2023/10/21 11:17:04;;;;;;;0.40;0.32;;;;;;;17.92;100.00;94810.72;5077014;28;20195;-71
2023/10/21 11:19:33;;;;;;;0.90;0.60;;;;;;;17.80;100.00;94812.75;5076993;28;20204;-70
2023/10/21 11:21:59;;;;;;;0.82;0.40;;;;;;;17.82;100.00;94822.13;5078074;28;20212;-71
2023/10/21 11:24:26;;;;;;;0.70;0.50;;;;;;;17.67;100.00;94815.88;5077904;28;20238;-71
2023/10/21 11:26:53;;;;;;;0.32;0.32;;;;;;;17.60;100.00;94823.25;5076742;28;20253;-70
2023/10/21 11:29:22;;;;;;;0.73;0.50;;;;;;;17.85;100.00;94815.47;5075934;28;20227;-71